<?xml version="1.0" encoding="UTF-8" standalone="no" ?>
<gpx xmlns="http://www.topografix.com/GPX/1/1" xmlns:xsi="http://www.w3.org/2001/XMLSchema-instance" xsi:schemaLocation="http://www.topografix.com/GPX/1/1 http://www.topografix.com/GPX/1/1/gpx.xsd" version="1.1" creator="VisuGPX - https://www.visugpx.com">
  <metadata>
    <name>Salvizinet à St Cyr les vignes</name>
    <desc><![CDATA[Journée des retrouvailles chez Nicole à Salvizinet]]></desc>
  </metadata>
  <trk>
    <name><![CDATA[Salvizinet St Cyr]]></name>
    <trkseg>
      <trkpt lat="45.7589" lon="4.27177">
        <ele>413</ele>
        <time>2012-03-25T14:15:43Z</time>
      </trkpt>
      <trkpt lat="45.7589" lon="4.27178">
        <ele>410</ele>
        <time>2012-03-25T14:15:48Z</time>
      </trkpt>
      <trkpt lat="45.75891" lon="4.2718">
        <ele>409</ele>
        <time>2012-03-25T14:16:04Z</time>
      </trkpt>
      <trkpt lat="45.75891" lon="4.27178">
        <ele>400</ele>
        <time>2012-03-25T14:16:14Z</time>
      </trkpt>
      <trkpt lat="45.75892" lon="4.27178">
        <ele>409</ele>
        <time>2012-03-25T14:16:15Z</time>
      </trkpt>
      <trkpt lat="45.75894" lon="4.27178">
        <ele>408</ele>
        <time>2012-03-25T14:16:17Z</time>
      </trkpt>
      <trkpt lat="45.75901" lon="4.27181">
        <ele>407</ele>
        <time>2012-03-25T14:16:22Z</time>
      </trkpt>
      <trkpt lat="45.75906" lon="4.27196">
        <ele>405</ele>
        <time>2012-03-25T14:16:36Z</time>
      </trkpt>
      <trkpt lat="45.75908" lon="4.27193">
        <ele>404</ele>
        <time>2012-03-25T14:16:52Z</time>
      </trkpt>
      <trkpt lat="45.75907" lon="4.27193">
        <ele>404</ele>
        <time>2012-03-25T14:17:03Z</time>
      </trkpt>
      <trkpt lat="45.75914" lon="4.27198">
        <ele>406</ele>
        <time>2012-03-25T14:17:08Z</time>
      </trkpt>
      <trkpt lat="45.75922" lon="4.27208">
        <ele>406</ele>
        <time>2012-03-25T14:17:16Z</time>
      </trkpt>
      <trkpt lat="45.75922" lon="4.27213">
        <ele>406</ele>
        <time>2012-03-25T14:17:25Z</time>
      </trkpt>
      <trkpt lat="45.7592" lon="4.27213">
        <ele>407</ele>
        <time>2012-03-25T14:17:32Z</time>
      </trkpt>
      <trkpt lat="45.75927" lon="4.27216">
        <ele>407</ele>
        <time>2012-03-25T14:17:36Z</time>
      </trkpt>
      <trkpt lat="45.75934" lon="4.27233">
        <ele>409</ele>
        <time>2012-03-25T14:17:46Z</time>
      </trkpt>
      <trkpt lat="45.75957" lon="4.27235">
        <ele>412</ele>
        <time>2012-03-25T14:18:01Z</time>
      </trkpt>
      <trkpt lat="45.75964" lon="4.2723">
        <ele>412</ele>
        <time>2012-03-25T14:18:07Z</time>
      </trkpt>
      <trkpt lat="45.75979" lon="4.27248">
        <ele>415</ele>
        <time>2012-03-25T14:18:22Z</time>
      </trkpt>
      <trkpt lat="45.75979" lon="4.27249">
        <ele>416</ele>
        <time>2012-03-25T14:18:23Z</time>
      </trkpt>
      <trkpt lat="45.75977" lon="4.27254">
        <ele>416</ele>
        <time>2012-03-25T14:18:26Z</time>
      </trkpt>
      <trkpt lat="45.75968" lon="4.27265">
        <ele>416</ele>
        <time>2012-03-25T14:18:41Z</time>
      </trkpt>
      <trkpt lat="45.75967" lon="4.27265">
        <ele>416</ele>
        <time>2012-03-25T14:19:00Z</time>
      </trkpt>
      <trkpt lat="45.75968" lon="4.27265">
        <ele>416</ele>
        <time>2012-03-25T14:19:18Z</time>
      </trkpt>
      <trkpt lat="45.75967" lon="4.27265">
        <ele>416</ele>
        <time>2012-03-25T14:19:32Z</time>
      </trkpt>
      <trkpt lat="45.75967" lon="4.27265">
        <ele>416</ele>
        <time>2012-03-25T14:19:48Z</time>
      </trkpt>
      <trkpt lat="45.75963" lon="4.2727">
        <ele>416</ele>
        <time>2012-03-25T14:20:05Z</time>
      </trkpt>
      <trkpt lat="45.75965" lon="4.27268">
        <ele>416</ele>
        <time>2012-03-25T14:20:23Z</time>
      </trkpt>
      <trkpt lat="45.75967" lon="4.27267">
        <ele>416</ele>
        <time>2012-03-25T14:20:34Z</time>
      </trkpt>
      <trkpt lat="45.75967" lon="4.27258">
        <ele>415</ele>
        <time>2012-03-25T14:20:51Z</time>
      </trkpt>
      <trkpt lat="45.75966" lon="4.27262">
        <ele>416</ele>
        <time>2012-03-25T14:21:10Z</time>
      </trkpt>
      <trkpt lat="45.75966" lon="4.27262">
        <ele>416</ele>
        <time>2012-03-25T14:21:30Z</time>
      </trkpt>
      <trkpt lat="45.75966" lon="4.27262">
        <ele>416</ele>
        <time>2012-03-25T14:21:52Z</time>
      </trkpt>
      <trkpt lat="45.75966" lon="4.27262">
        <ele>415</ele>
        <time>2012-03-25T14:22:13Z</time>
      </trkpt>
      <trkpt lat="45.75967" lon="4.27264">
        <ele>416</ele>
        <time>2012-03-25T14:22:32Z</time>
      </trkpt>
      <trkpt lat="45.75965" lon="4.27287">
        <ele>416</ele>
        <time>2012-03-25T14:22:50Z</time>
      </trkpt>
      <trkpt lat="45.75965" lon="4.27292">
        <ele>416</ele>
        <time>2012-03-25T14:23:09Z</time>
      </trkpt>
      <trkpt lat="45.75963" lon="4.27302">
        <ele>417</ele>
        <time>2012-03-25T14:23:26Z</time>
      </trkpt>
      <trkpt lat="45.7596" lon="4.2732">
        <ele>418</ele>
        <time>2012-03-25T14:23:42Z</time>
      </trkpt>
      <trkpt lat="45.7596" lon="4.27321">
        <ele>418</ele>
        <time>2012-03-25T14:23:43Z</time>
      </trkpt>
      <trkpt lat="45.75955" lon="4.27325">
        <ele>418</ele>
        <time>2012-03-25T14:23:47Z</time>
      </trkpt>
      <trkpt lat="45.75958" lon="4.27331">
        <ele>419</ele>
        <time>2012-03-25T14:23:51Z</time>
      </trkpt>
      <trkpt lat="45.75962" lon="4.27338">
        <ele>419</ele>
        <time>2012-03-25T14:23:55Z</time>
      </trkpt>
      <trkpt lat="45.75965" lon="4.27346">
        <ele>420</ele>
        <time>2012-03-25T14:24:09Z</time>
      </trkpt>
      <trkpt lat="45.75965" lon="4.27352">
        <ele>420</ele>
        <time>2012-03-25T14:24:25Z</time>
      </trkpt>
      <trkpt lat="45.75965" lon="4.27355">
        <ele>419</ele>
        <time>2012-03-25T14:24:41Z</time>
      </trkpt>
      <trkpt lat="45.75965" lon="4.27354">
        <ele>420</ele>
        <time>2012-03-25T14:25:01Z</time>
      </trkpt>
      <trkpt lat="45.75965" lon="4.27353">
        <ele>419</ele>
        <time>2012-03-25T14:25:22Z</time>
      </trkpt>
      <trkpt lat="45.75965" lon="4.27355">
        <ele>419</ele>
        <time>2012-03-25T14:25:25Z</time>
      </trkpt>
      <trkpt lat="45.75962" lon="4.2736">
        <ele>420</ele>
        <time>2012-03-25T14:25:31Z</time>
      </trkpt>
      <trkpt lat="45.7595" lon="4.27381">
        <ele>419</ele>
        <time>2012-03-25T14:25:45Z</time>
      </trkpt>
      <trkpt lat="45.7595" lon="4.27383">
        <ele>419</ele>
        <time>2012-03-25T14:25:46Z</time>
      </trkpt>
      <trkpt lat="45.75946" lon="4.27389">
        <ele>419</ele>
        <time>2012-03-25T14:25:50Z</time>
      </trkpt>
      <trkpt lat="45.75935" lon="4.27404">
        <ele>418</ele>
        <time>2012-03-25T14:26:08Z</time>
      </trkpt>
      <trkpt lat="45.75937" lon="4.27409">
        <ele>418</ele>
        <time>2012-03-25T14:26:11Z</time>
      </trkpt>
      <trkpt lat="45.7593" lon="4.27416">
        <ele>418</ele>
        <time>2012-03-25T14:26:24Z</time>
      </trkpt>
      <trkpt lat="45.75926" lon="4.27422">
        <ele>417</ele>
        <time>2012-03-25T14:26:28Z</time>
      </trkpt>
      <trkpt lat="45.75913" lon="4.2745">
        <ele>416</ele>
        <time>2012-03-25T14:26:41Z</time>
      </trkpt>
      <trkpt lat="45.75912" lon="4.27458">
        <ele>415</ele>
        <time>2012-03-25T14:26:45Z</time>
      </trkpt>
      <trkpt lat="45.75907" lon="4.27494">
        <ele>413</ele>
        <time>2012-03-25T14:27:01Z</time>
      </trkpt>
      <trkpt lat="45.75889" lon="4.2751">
        <ele>415</ele>
        <time>2012-03-25T14:27:15Z</time>
      </trkpt>
      <trkpt lat="45.75868" lon="4.27493">
        <ele>418</ele>
        <time>2012-03-25T14:27:28Z</time>
      </trkpt>
      <trkpt lat="45.75859" lon="4.27493">
        <ele>418</ele>
        <time>2012-03-25T14:27:33Z</time>
      </trkpt>
      <trkpt lat="45.75827" lon="4.27496">
        <ele>422</ele>
        <time>2012-03-25T14:27:54Z</time>
      </trkpt>
      <trkpt lat="45.758" lon="4.27504">
        <ele>423</ele>
        <time>2012-03-25T14:28:10Z</time>
      </trkpt>
      <trkpt lat="45.75776" lon="4.27514">
        <ele>423</ele>
        <time>2012-03-25T14:28:26Z</time>
      </trkpt>
      <trkpt lat="45.75752" lon="4.27533">
        <ele>423</ele>
        <time>2012-03-25T14:28:43Z</time>
      </trkpt>
      <trkpt lat="45.75745" lon="4.27536">
        <ele>423</ele>
        <time>2012-03-25T14:28:47Z</time>
      </trkpt>
      <trkpt lat="45.7573" lon="4.27548">
        <ele>424</ele>
        <time>2012-03-25T14:28:57Z</time>
      </trkpt>
      <trkpt lat="45.75714" lon="4.27563">
        <ele>423</ele>
        <time>2012-03-25T14:29:09Z</time>
      </trkpt>
      <trkpt lat="45.75692" lon="4.27598">
        <ele>422</ele>
        <time>2012-03-25T14:29:27Z</time>
      </trkpt>
      <trkpt lat="45.75674" lon="4.27638">
        <ele>423</ele>
        <time>2012-03-25T14:29:45Z</time>
      </trkpt>
      <trkpt lat="45.75656" lon="4.27667">
        <ele>424</ele>
        <time>2012-03-25T14:30:01Z</time>
      </trkpt>
      <trkpt lat="45.7563" lon="4.27699">
        <ele>425</ele>
        <time>2012-03-25T14:30:20Z</time>
      </trkpt>
      <trkpt lat="45.75602" lon="4.27731">
        <ele>426</ele>
        <time>2012-03-25T14:30:40Z</time>
      </trkpt>
      <trkpt lat="45.75585" lon="4.27767">
        <ele>429</ele>
        <time>2012-03-25T14:31:00Z</time>
      </trkpt>
      <trkpt lat="45.75568" lon="4.278">
        <ele>432</ele>
        <time>2012-03-25T14:31:20Z</time>
      </trkpt>
      <trkpt lat="45.75555" lon="4.27832">
        <ele>434</ele>
        <time>2012-03-25T14:31:38Z</time>
      </trkpt>
      <trkpt lat="45.75541" lon="4.27867">
        <ele>436</ele>
        <time>2012-03-25T14:31:59Z</time>
      </trkpt>
      <trkpt lat="45.75535" lon="4.2791">
        <ele>438</ele>
        <time>2012-03-25T14:32:19Z</time>
      </trkpt>
      <trkpt lat="45.75531" lon="4.27951">
        <ele>440</ele>
        <time>2012-03-25T14:32:39Z</time>
      </trkpt>
      <trkpt lat="45.75527" lon="4.27996">
        <ele>442</ele>
        <time>2012-03-25T14:33:01Z</time>
      </trkpt>
      <trkpt lat="45.75523" lon="4.28025">
        <ele>443</ele>
        <time>2012-03-25T14:33:16Z</time>
      </trkpt>
      <trkpt lat="45.75519" lon="4.28041">
        <ele>442</ele>
        <time>2012-03-25T14:33:34Z</time>
      </trkpt>
      <trkpt lat="45.75519" lon="4.28043">
        <ele>442</ele>
        <time>2012-03-25T14:33:56Z</time>
      </trkpt>
      <trkpt lat="45.75518" lon="4.28044">
        <ele>443</ele>
        <time>2012-03-25T14:34:14Z</time>
      </trkpt>
      <trkpt lat="45.75517" lon="4.28044">
        <ele>442</ele>
        <time>2012-03-25T14:34:22Z</time>
      </trkpt>
      <trkpt lat="45.75513" lon="4.28047">
        <ele>442</ele>
        <time>2012-03-25T14:34:27Z</time>
      </trkpt>
      <trkpt lat="45.75501" lon="4.28044">
        <ele>442</ele>
        <time>2012-03-25T14:34:43Z</time>
      </trkpt>
      <trkpt lat="45.75501" lon="4.28045">
        <ele>442</ele>
        <time>2012-03-25T14:34:44Z</time>
      </trkpt>
      <trkpt lat="45.75483" lon="4.28059">
        <ele>441</ele>
        <time>2012-03-25T14:34:58Z</time>
      </trkpt>
      <trkpt lat="45.7546" lon="4.28072">
        <ele>440</ele>
        <time>2012-03-25T14:35:14Z</time>
      </trkpt>
      <trkpt lat="45.75435" lon="4.28087">
        <ele>438</ele>
        <time>2012-03-25T14:35:29Z</time>
      </trkpt>
      <trkpt lat="45.75412" lon="4.28101">
        <ele>438</ele>
        <time>2012-03-25T14:35:43Z</time>
      </trkpt>
      <trkpt lat="45.75386" lon="4.28112">
        <ele>436</ele>
        <time>2012-03-25T14:35:57Z</time>
      </trkpt>
      <trkpt lat="45.75362" lon="4.28122">
        <ele>436</ele>
        <time>2012-03-25T14:36:12Z</time>
      </trkpt>
      <trkpt lat="45.75338" lon="4.28134">
        <ele>434</ele>
        <time>2012-03-25T14:36:27Z</time>
      </trkpt>
      <trkpt lat="45.75318" lon="4.28153">
        <ele>433</ele>
        <time>2012-03-25T14:36:42Z</time>
      </trkpt>
      <trkpt lat="45.75307" lon="4.28184">
        <ele>430</ele>
        <time>2012-03-25T14:37:00Z</time>
      </trkpt>
      <trkpt lat="45.75299" lon="4.28204">
        <ele>427</ele>
        <time>2012-03-25T14:37:12Z</time>
      </trkpt>
      <trkpt lat="45.75296" lon="4.28217">
        <ele>426</ele>
        <time>2012-03-25T14:37:27Z</time>
      </trkpt>
      <trkpt lat="45.75296" lon="4.28214">
        <ele>426</ele>
        <time>2012-03-25T14:37:47Z</time>
      </trkpt>
      <trkpt lat="45.75296" lon="4.28215">
        <ele>426</ele>
        <time>2012-03-25T14:37:48Z</time>
      </trkpt>
      <trkpt lat="45.75295" lon="4.28222">
        <ele>426</ele>
        <time>2012-03-25T14:37:52Z</time>
      </trkpt>
      <trkpt lat="45.75288" lon="4.28228">
        <ele>425</ele>
        <time>2012-03-25T14:38:09Z</time>
      </trkpt>
      <trkpt lat="45.75287" lon="4.28229">
        <ele>425</ele>
        <time>2012-03-25T14:38:10Z</time>
      </trkpt>
      <trkpt lat="45.75282" lon="4.2823">
        <ele>424</ele>
        <time>2012-03-25T14:38:25Z</time>
      </trkpt>
      <trkpt lat="45.75275" lon="4.2824">
        <ele>423</ele>
        <time>2012-03-25T14:38:34Z</time>
      </trkpt>
      <trkpt lat="45.75272" lon="4.28244">
        <ele>423</ele>
        <time>2012-03-25T14:38:38Z</time>
      </trkpt>
      <trkpt lat="45.75269" lon="4.28248">
        <ele>422</ele>
        <time>2012-03-25T14:38:43Z</time>
      </trkpt>
      <trkpt lat="45.75253" lon="4.28252">
        <ele>418</ele>
        <time>2012-03-25T14:38:56Z</time>
      </trkpt>
      <trkpt lat="45.75251" lon="4.28252">
        <ele>418</ele>
        <time>2012-03-25T14:38:58Z</time>
      </trkpt>
      <trkpt lat="45.75242" lon="4.28243">
        <ele>417</ele>
        <time>2012-03-25T14:39:06Z</time>
      </trkpt>
      <trkpt lat="45.75239" lon="4.28244">
        <ele>416</ele>
        <time>2012-03-25T14:39:09Z</time>
      </trkpt>
      <trkpt lat="45.75238" lon="4.28249">
        <ele>416</ele>
        <time>2012-03-25T14:39:12Z</time>
      </trkpt>
      <trkpt lat="45.75235" lon="4.28272">
        <ele>413</ele>
        <time>2012-03-25T14:39:26Z</time>
      </trkpt>
      <trkpt lat="45.75236" lon="4.28273">
        <ele>413</ele>
        <time>2012-03-25T14:39:27Z</time>
      </trkpt>
      <trkpt lat="45.75241" lon="4.28285">
        <ele>411</ele>
        <time>2012-03-25T14:39:36Z</time>
      </trkpt>
      <trkpt lat="45.75263" lon="4.28284">
        <ele>409</ele>
        <time>2012-03-25T14:39:50Z</time>
      </trkpt>
      <trkpt lat="45.75284" lon="4.2829">
        <ele>407</ele>
        <time>2012-03-25T14:40:05Z</time>
      </trkpt>
      <trkpt lat="45.75305" lon="4.28306">
        <ele>405</ele>
        <time>2012-03-25T14:40:20Z</time>
      </trkpt>
      <trkpt lat="45.75324" lon="4.28322">
        <ele>403</ele>
        <time>2012-03-25T14:40:34Z</time>
      </trkpt>
      <trkpt lat="45.75345" lon="4.28333">
        <ele>401</ele>
        <time>2012-03-25T14:40:50Z</time>
      </trkpt>
      <trkpt lat="45.75351" lon="4.28343">
        <ele>401</ele>
        <time>2012-03-25T14:40:55Z</time>
      </trkpt>
      <trkpt lat="45.75361" lon="4.2837">
        <ele>398</ele>
        <time>2012-03-25T14:41:09Z</time>
      </trkpt>
      <trkpt lat="45.75365" lon="4.28383">
        <ele>396</ele>
        <time>2012-03-25T14:41:16Z</time>
      </trkpt>
      <trkpt lat="45.75375" lon="4.28393">
        <ele>394</ele>
        <time>2012-03-25T14:41:27Z</time>
      </trkpt>
      <trkpt lat="45.75382" lon="4.28397">
        <ele>393</ele>
        <time>2012-03-25T14:41:34Z</time>
      </trkpt>
      <trkpt lat="45.75405" lon="4.28397">
        <ele>391</ele>
        <time>2012-03-25T14:41:49Z</time>
      </trkpt>
      <trkpt lat="45.75426" lon="4.28409">
        <ele>391</ele>
        <time>2012-03-25T14:42:05Z</time>
      </trkpt>
      <trkpt lat="45.75429" lon="4.2841">
        <ele>390</ele>
        <time>2012-03-25T14:42:07Z</time>
      </trkpt>
      <trkpt lat="45.75433" lon="4.28411">
        <ele>389</ele>
        <time>2012-03-25T14:42:09Z</time>
      </trkpt>
      <trkpt lat="45.7544" lon="4.28413">
        <ele>390</ele>
        <time>2012-03-25T14:42:13Z</time>
      </trkpt>
      <trkpt lat="45.75467" lon="4.28418">
        <ele>388</ele>
        <time>2012-03-25T14:42:29Z</time>
      </trkpt>
      <trkpt lat="45.75488" lon="4.28433">
        <ele>387</ele>
        <time>2012-03-25T14:42:44Z</time>
      </trkpt>
      <trkpt lat="45.75489" lon="4.28435">
        <ele>387</ele>
        <time>2012-03-25T14:42:46Z</time>
      </trkpt>
      <trkpt lat="45.75507" lon="4.28452">
        <ele>384</ele>
        <time>2012-03-25T14:43:02Z</time>
      </trkpt>
      <trkpt lat="45.75508" lon="4.28456">
        <ele>384</ele>
        <time>2012-03-25T14:43:04Z</time>
      </trkpt>
      <trkpt lat="45.75507" lon="4.28474">
        <ele>382</ele>
        <time>2012-03-25T14:43:12Z</time>
      </trkpt>
      <trkpt lat="45.75488" lon="4.28487">
        <ele>380</ele>
        <time>2012-03-25T14:43:26Z</time>
      </trkpt>
      <trkpt lat="45.75486" lon="4.28488">
        <ele>379</ele>
        <time>2012-03-25T14:43:27Z</time>
      </trkpt>
      <trkpt lat="45.75464" lon="4.28502">
        <ele>378</ele>
        <time>2012-03-25T14:43:43Z</time>
      </trkpt>
      <trkpt lat="45.75446" lon="4.28509">
        <ele>379</ele>
        <time>2012-03-25T14:43:57Z</time>
      </trkpt>
      <trkpt lat="45.75435" lon="4.28506">
        <ele>378</ele>
        <time>2012-03-25T14:44:04Z</time>
      </trkpt>
      <trkpt lat="45.75428" lon="4.28505">
        <ele>377</ele>
        <time>2012-03-25T14:44:08Z</time>
      </trkpt>
      <trkpt lat="45.75404" lon="4.28501">
        <ele>376</ele>
        <time>2012-03-25T14:44:22Z</time>
      </trkpt>
      <trkpt lat="45.75386" lon="4.28497">
        <ele>376</ele>
        <time>2012-03-25T14:44:35Z</time>
      </trkpt>
      <trkpt lat="45.75367" lon="4.28492">
        <ele>375</ele>
        <time>2012-03-25T14:44:47Z</time>
      </trkpt>
      <trkpt lat="45.75362" lon="4.28491">
        <ele>375</ele>
        <time>2012-03-25T14:44:50Z</time>
      </trkpt>
      <trkpt lat="45.75326" lon="4.28483">
        <ele>374</ele>
        <time>2012-03-25T14:45:10Z</time>
      </trkpt>
      <trkpt lat="45.7529" lon="4.28477">
        <ele>373</ele>
        <time>2012-03-25T14:45:29Z</time>
      </trkpt>
      <trkpt lat="45.7527" lon="4.28475">
        <ele>372</ele>
        <time>2012-03-25T14:45:43Z</time>
      </trkpt>
      <trkpt lat="45.75264" lon="4.28474">
        <ele>372</ele>
        <time>2012-03-25T14:45:48Z</time>
      </trkpt>
      <trkpt lat="45.75256" lon="4.28473">
        <ele>372</ele>
        <time>2012-03-25T14:45:53Z</time>
      </trkpt>
      <trkpt lat="45.75222" lon="4.2847">
        <ele>371</ele>
        <time>2012-03-25T14:46:11Z</time>
      </trkpt>
      <trkpt lat="45.75202" lon="4.28477">
        <ele>371</ele>
        <time>2012-03-25T14:46:26Z</time>
      </trkpt>
      <trkpt lat="45.75173" lon="4.28487">
        <ele>370</ele>
        <time>2012-03-25T14:46:41Z</time>
      </trkpt>
      <trkpt lat="45.75148" lon="4.28502">
        <ele>369</ele>
        <time>2012-03-25T14:46:59Z</time>
      </trkpt>
      <trkpt lat="45.7513" lon="4.28506">
        <ele>368</ele>
        <time>2012-03-25T14:47:10Z</time>
      </trkpt>
      <trkpt lat="45.75102" lon="4.28519">
        <ele>369</ele>
        <time>2012-03-25T14:47:28Z</time>
      </trkpt>
      <trkpt lat="45.75075" lon="4.28548">
        <ele>369</ele>
        <time>2012-03-25T14:47:47Z</time>
      </trkpt>
      <trkpt lat="45.7506" lon="4.28555">
        <ele>366</ele>
        <time>2012-03-25T14:48:01Z</time>
      </trkpt>
      <trkpt lat="45.75059" lon="4.28556">
        <ele>366</ele>
        <time>2012-03-25T14:48:02Z</time>
      </trkpt>
      <trkpt lat="45.75035" lon="4.28551">
        <ele>366</ele>
        <time>2012-03-25T14:48:17Z</time>
      </trkpt>
      <trkpt lat="45.75034" lon="4.28549">
        <ele>366</ele>
        <time>2012-03-25T14:48:18Z</time>
      </trkpt>
      <trkpt lat="45.75007" lon="4.28523">
        <ele>365</ele>
        <time>2012-03-25T14:48:37Z</time>
      </trkpt>
      <trkpt lat="45.75002" lon="4.28519">
        <ele>365</ele>
        <time>2012-03-25T14:48:40Z</time>
      </trkpt>
      <trkpt lat="45.74982" lon="4.28507">
        <ele>365</ele>
        <time>2012-03-25T14:48:55Z</time>
      </trkpt>
      <trkpt lat="45.74959" lon="4.2849">
        <ele>364</ele>
        <time>2012-03-25T14:49:12Z</time>
      </trkpt>
      <trkpt lat="45.74937" lon="4.28477">
        <ele>364</ele>
        <time>2012-03-25T14:49:27Z</time>
      </trkpt>
      <trkpt lat="45.74924" lon="4.28468">
        <ele>363</ele>
        <time>2012-03-25T14:49:36Z</time>
      </trkpt>
      <trkpt lat="45.74905" lon="4.28455">
        <ele>362</ele>
        <time>2012-03-25T14:49:51Z</time>
      </trkpt>
      <trkpt lat="45.74884" lon="4.28448">
        <ele>362</ele>
        <time>2012-03-25T14:50:06Z</time>
      </trkpt>
      <trkpt lat="45.74874" lon="4.28443">
        <ele>362</ele>
        <time>2012-03-25T14:50:13Z</time>
      </trkpt>
      <trkpt lat="45.7487" lon="4.28441">
        <ele>361</ele>
        <time>2012-03-25T14:50:15Z</time>
      </trkpt>
      <trkpt lat="45.7485" lon="4.28434">
        <ele>361</ele>
        <time>2012-03-25T14:50:31Z</time>
      </trkpt>
      <trkpt lat="45.74833" lon="4.28416">
        <ele>358</ele>
        <time>2012-03-25T14:50:46Z</time>
      </trkpt>
      <trkpt lat="45.74811" lon="4.28402">
        <ele>359</ele>
        <time>2012-03-25T14:51:04Z</time>
      </trkpt>
      <trkpt lat="45.74802" lon="4.28394">
        <ele>360</ele>
        <time>2012-03-25T14:51:12Z</time>
      </trkpt>
      <trkpt lat="45.74795" lon="4.28387">
        <ele>362</ele>
        <time>2012-03-25T14:51:17Z</time>
      </trkpt>
      <trkpt lat="45.74788" lon="4.28367">
        <ele>364</ele>
        <time>2012-03-25T14:51:34Z</time>
      </trkpt>
      <trkpt lat="45.74796" lon="4.28348">
        <ele>361</ele>
        <time>2012-03-25T14:51:48Z</time>
      </trkpt>
      <trkpt lat="45.74797" lon="4.28326">
        <ele>359</ele>
        <time>2012-03-25T14:52:02Z</time>
      </trkpt>
      <trkpt lat="45.74798" lon="4.28323">
        <ele>358</ele>
        <time>2012-03-25T14:52:03Z</time>
      </trkpt>
      <trkpt lat="45.74801" lon="4.28317">
        <ele>358</ele>
        <time>2012-03-25T14:52:05Z</time>
      </trkpt>
      <trkpt lat="45.74808" lon="4.28303">
        <ele>355</ele>
        <time>2012-03-25T14:52:14Z</time>
      </trkpt>
      <trkpt lat="45.74814" lon="4.28301">
        <ele>354</ele>
        <time>2012-03-25T14:52:20Z</time>
      </trkpt>
      <trkpt lat="45.74816" lon="4.28286">
        <ele>353</ele>
        <time>2012-03-25T14:52:30Z</time>
      </trkpt>
      <trkpt lat="45.7481" lon="4.28257">
        <ele>352</ele>
        <time>2012-03-25T14:52:42Z</time>
      </trkpt>
      <trkpt lat="45.74805" lon="4.28249">
        <ele>351</ele>
        <time>2012-03-25T14:52:47Z</time>
      </trkpt>
      <trkpt lat="45.74799" lon="4.28243">
        <ele>351</ele>
        <time>2012-03-25T14:52:51Z</time>
      </trkpt>
      <trkpt lat="45.74778" lon="4.28226">
        <ele>350</ele>
        <time>2012-03-25T14:53:06Z</time>
      </trkpt>
      <trkpt lat="45.74761" lon="4.28211">
        <ele>350</ele>
        <time>2012-03-25T14:53:19Z</time>
      </trkpt>
      <trkpt lat="45.74747" lon="4.28191">
        <ele>350</ele>
        <time>2012-03-25T14:53:34Z</time>
      </trkpt>
      <trkpt lat="45.74747" lon="4.28191">
        <ele>350</ele>
        <time>2012-03-25T14:53:35Z</time>
      </trkpt>
      <trkpt lat="45.74741" lon="4.28158">
        <ele>351</ele>
        <time>2012-03-25T14:53:51Z</time>
      </trkpt>
      <trkpt lat="45.7474" lon="4.2815">
        <ele>351</ele>
        <time>2012-03-25T14:53:54Z</time>
      </trkpt>
      <trkpt lat="45.74737" lon="4.28137">
        <ele>350</ele>
        <time>2012-03-25T14:54:01Z</time>
      </trkpt>
      <trkpt lat="45.74723" lon="4.28113">
        <ele>350</ele>
        <time>2012-03-25T14:54:16Z</time>
      </trkpt>
      <trkpt lat="45.74706" lon="4.28091">
        <ele>350</ele>
        <time>2012-03-25T14:54:31Z</time>
      </trkpt>
      <trkpt lat="45.74699" lon="4.28083">
        <ele>350</ele>
        <time>2012-03-25T14:54:38Z</time>
      </trkpt>
      <trkpt lat="45.74686" lon="4.28047">
        <ele>350</ele>
        <time>2012-03-25T14:54:53Z</time>
      </trkpt>
      <trkpt lat="45.74676" lon="4.28003">
        <ele>349</ele>
        <time>2012-03-25T14:55:11Z</time>
      </trkpt>
      <trkpt lat="45.74653" lon="4.27987">
        <ele>350</ele>
        <time>2012-03-25T14:55:28Z</time>
      </trkpt>
      <trkpt lat="45.7463" lon="4.27991">
        <ele>350</ele>
        <time>2012-03-25T14:55:42Z</time>
      </trkpt>
      <trkpt lat="45.74629" lon="4.27992">
        <ele>350</ele>
        <time>2012-03-25T14:55:43Z</time>
      </trkpt>
      <trkpt lat="45.74595" lon="4.27993">
        <ele>352</ele>
        <time>2012-03-25T14:56:05Z</time>
      </trkpt>
      <trkpt lat="45.7457" lon="4.2798">
        <ele>354</ele>
        <time>2012-03-25T14:56:24Z</time>
      </trkpt>
      <trkpt lat="45.74546" lon="4.27993">
        <ele>355</ele>
        <time>2012-03-25T14:56:41Z</time>
      </trkpt>
      <trkpt lat="45.74523" lon="4.28006">
        <ele>356</ele>
        <time>2012-03-25T14:56:57Z</time>
      </trkpt>
      <trkpt lat="45.7451" lon="4.28041">
        <ele>357</ele>
        <time>2012-03-25T14:57:14Z</time>
      </trkpt>
      <trkpt lat="45.74491" lon="4.28058">
        <ele>358</ele>
        <time>2012-03-25T14:57:31Z</time>
      </trkpt>
      <trkpt lat="45.74489" lon="4.28061">
        <ele>358</ele>
        <time>2012-03-25T14:57:33Z</time>
      </trkpt>
      <trkpt lat="45.74463" lon="4.28082">
        <ele>359</ele>
        <time>2012-03-25T14:57:54Z</time>
      </trkpt>
      <trkpt lat="45.74441" lon="4.28103">
        <ele>359</ele>
        <time>2012-03-25T14:58:11Z</time>
      </trkpt>
      <trkpt lat="45.74422" lon="4.28134">
        <ele>361</ele>
        <time>2012-03-25T14:58:30Z</time>
      </trkpt>
      <trkpt lat="45.74406" lon="4.28171">
        <ele>362</ele>
        <time>2012-03-25T14:58:49Z</time>
      </trkpt>
      <trkpt lat="45.74393" lon="4.28194">
        <ele>362</ele>
        <time>2012-03-25T14:59:03Z</time>
      </trkpt>
      <trkpt lat="45.74364" lon="4.28209">
        <ele>363</ele>
        <time>2012-03-25T14:59:22Z</time>
      </trkpt>
      <trkpt lat="45.74328" lon="4.28224">
        <ele>362</ele>
        <time>2012-03-25T14:59:44Z</time>
      </trkpt>
      <trkpt lat="45.74306" lon="4.28224">
        <ele>362</ele>
        <time>2012-03-25T15:00:02Z</time>
      </trkpt>
      <trkpt lat="45.74274" lon="4.28226">
        <ele>362</ele>
        <time>2012-03-25T15:00:23Z</time>
      </trkpt>
      <trkpt lat="45.74259" lon="4.28226">
        <ele>362</ele>
        <time>2012-03-25T15:00:34Z</time>
      </trkpt>
      <trkpt lat="45.74232" lon="4.28219">
        <ele>362</ele>
        <time>2012-03-25T15:00:52Z</time>
      </trkpt>
      <trkpt lat="45.74205" lon="4.28211">
        <ele>360</ele>
        <time>2012-03-25T15:01:10Z</time>
      </trkpt>
      <trkpt lat="45.74178" lon="4.28205">
        <ele>360</ele>
        <time>2012-03-25T15:01:29Z</time>
      </trkpt>
      <trkpt lat="45.74172" lon="4.28203">
        <ele>360</ele>
        <time>2012-03-25T15:01:35Z</time>
      </trkpt>
      <trkpt lat="45.74146" lon="4.28201">
        <ele>359</ele>
        <time>2012-03-25T15:01:53Z</time>
      </trkpt>
      <trkpt lat="45.74141" lon="4.282">
        <ele>359</ele>
        <time>2012-03-25T15:02:06Z</time>
      </trkpt>
      <trkpt lat="45.74132" lon="4.28205">
        <ele>359</ele>
        <time>2012-03-25T15:02:12Z</time>
      </trkpt>
      <trkpt lat="45.74104" lon="4.2822">
        <ele>358</ele>
        <time>2012-03-25T15:02:30Z</time>
      </trkpt>
      <trkpt lat="45.7408" lon="4.28235">
        <ele>359</ele>
        <time>2012-03-25T15:02:47Z</time>
      </trkpt>
      <trkpt lat="45.74057" lon="4.2825">
        <ele>359</ele>
        <time>2012-03-25T15:03:04Z</time>
      </trkpt>
      <trkpt lat="45.74028" lon="4.2826">
        <ele>359</ele>
        <time>2012-03-25T15:03:22Z</time>
      </trkpt>
      <trkpt lat="45.74001" lon="4.28276">
        <ele>358</ele>
        <time>2012-03-25T15:03:41Z</time>
      </trkpt>
      <trkpt lat="45.73995" lon="4.28301">
        <ele>357</ele>
        <time>2012-03-25T15:03:56Z</time>
      </trkpt>
      <trkpt lat="45.74007" lon="4.28338">
        <ele>360</ele>
        <time>2012-03-25T15:04:16Z</time>
      </trkpt>
      <trkpt lat="45.74021" lon="4.28376">
        <ele>361</ele>
        <time>2012-03-25T15:04:35Z</time>
      </trkpt>
      <trkpt lat="45.74041" lon="4.28416">
        <ele>363</ele>
        <time>2012-03-25T15:04:57Z</time>
      </trkpt>
      <trkpt lat="45.7405" lon="4.28445">
        <ele>364</ele>
        <time>2012-03-25T15:05:13Z</time>
      </trkpt>
      <trkpt lat="45.74045" lon="4.28491">
        <ele>365</ele>
        <time>2012-03-25T15:05:34Z</time>
      </trkpt>
      <trkpt lat="45.74041" lon="4.2854">
        <ele>366</ele>
        <time>2012-03-25T15:05:56Z</time>
      </trkpt>
      <trkpt lat="45.74042" lon="4.28554">
        <ele>368</ele>
        <time>2012-03-25T15:06:02Z</time>
      </trkpt>
      <trkpt lat="45.74053" lon="4.28589">
        <ele>369</ele>
        <time>2012-03-25T15:06:20Z</time>
      </trkpt>
      <trkpt lat="45.74056" lon="4.28606">
        <ele>370</ele>
        <time>2012-03-25T15:06:34Z</time>
      </trkpt>
      <trkpt lat="45.74054" lon="4.2861">
        <ele>371</ele>
        <time>2012-03-25T15:06:41Z</time>
      </trkpt>
      <trkpt lat="45.74036" lon="4.28626">
        <ele>370</ele>
        <time>2012-03-25T15:06:58Z</time>
      </trkpt>
      <trkpt lat="45.74017" lon="4.28637">
        <ele>368</ele>
        <time>2012-03-25T15:07:13Z</time>
      </trkpt>
      <trkpt lat="45.73999" lon="4.2865">
        <ele>367</ele>
        <time>2012-03-25T15:07:26Z</time>
      </trkpt>
      <trkpt lat="45.73977" lon="4.28664">
        <ele>365</ele>
        <time>2012-03-25T15:07:42Z</time>
      </trkpt>
      <trkpt lat="45.73956" lon="4.28682">
        <ele>364</ele>
        <time>2012-03-25T15:07:58Z</time>
      </trkpt>
      <trkpt lat="45.73941" lon="4.28711">
        <ele>363</ele>
        <time>2012-03-25T15:08:15Z</time>
      </trkpt>
      <trkpt lat="45.73928" lon="4.28742">
        <ele>363</ele>
        <time>2012-03-25T15:08:29Z</time>
      </trkpt>
      <trkpt lat="45.7392" lon="4.28775">
        <ele>362</ele>
        <time>2012-03-25T15:08:45Z</time>
      </trkpt>
      <trkpt lat="45.73914" lon="4.28793">
        <ele>362</ele>
        <time>2012-03-25T15:08:55Z</time>
      </trkpt>
      <trkpt lat="45.73909" lon="4.28801">
        <ele>361</ele>
        <time>2012-03-25T15:09:00Z</time>
      </trkpt>
      <trkpt lat="45.73884" lon="4.28808">
        <ele>360</ele>
        <time>2012-03-25T15:09:16Z</time>
      </trkpt>
      <trkpt lat="45.73863" lon="4.2882">
        <ele>359</ele>
        <time>2012-03-25T15:09:30Z</time>
      </trkpt>
      <trkpt lat="45.7384" lon="4.28834">
        <ele>359</ele>
        <time>2012-03-25T15:09:47Z</time>
      </trkpt>
      <trkpt lat="45.73818" lon="4.28845">
        <ele>359</ele>
        <time>2012-03-25T15:10:02Z</time>
      </trkpt>
      <trkpt lat="45.73797" lon="4.28854">
        <ele>359</ele>
        <time>2012-03-25T15:10:20Z</time>
      </trkpt>
      <trkpt lat="45.73784" lon="4.28863">
        <ele>360</ele>
        <time>2012-03-25T15:10:35Z</time>
      </trkpt>
      <trkpt lat="45.73777" lon="4.28872">
        <ele>361</ele>
        <time>2012-03-25T15:10:43Z</time>
      </trkpt>
      <trkpt lat="45.73768" lon="4.28885">
        <ele>362</ele>
        <time>2012-03-25T15:11:01Z</time>
      </trkpt>
      <trkpt lat="45.73767" lon="4.28888">
        <ele>362</ele>
        <time>2012-03-25T15:11:05Z</time>
      </trkpt>
      <trkpt lat="45.73756" lon="4.28917">
        <ele>363</ele>
        <time>2012-03-25T15:11:23Z</time>
      </trkpt>
      <trkpt lat="45.73741" lon="4.28946">
        <ele>365</ele>
        <time>2012-03-25T15:11:39Z</time>
      </trkpt>
      <trkpt lat="45.73742" lon="4.2898">
        <ele>367</ele>
        <time>2012-03-25T15:11:56Z</time>
      </trkpt>
      <trkpt lat="45.7374" lon="4.28992">
        <ele>368</ele>
        <time>2012-03-25T15:12:03Z</time>
      </trkpt>
      <trkpt lat="45.7374" lon="4.29036">
        <ele>370</ele>
        <time>2012-03-25T15:12:22Z</time>
      </trkpt>
      <trkpt lat="45.73736" lon="4.29064">
        <ele>368</ele>
        <time>2012-03-25T15:12:36Z</time>
      </trkpt>
      <trkpt lat="45.7373" lon="4.29086">
        <ele>367</ele>
        <time>2012-03-25T15:12:48Z</time>
      </trkpt>
      <trkpt lat="45.73726" lon="4.29117">
        <ele>366</ele>
        <time>2012-03-25T15:13:03Z</time>
      </trkpt>
      <trkpt lat="45.7373" lon="4.29155">
        <ele>364</ele>
        <time>2012-03-25T15:13:22Z</time>
      </trkpt>
      <trkpt lat="45.7373" lon="4.29172">
        <ele>363</ele>
        <time>2012-03-25T15:13:32Z</time>
      </trkpt>
      <trkpt lat="45.73724" lon="4.29208">
        <ele>364</ele>
        <time>2012-03-25T15:13:47Z</time>
      </trkpt>
      <trkpt lat="45.73718" lon="4.2922">
        <ele>365</ele>
        <time>2012-03-25T15:13:58Z</time>
      </trkpt>
      <trkpt lat="45.73704" lon="4.29265">
        <ele>366</ele>
        <time>2012-03-25T15:14:15Z</time>
      </trkpt>
      <trkpt lat="45.73692" lon="4.29296">
        <ele>366</ele>
        <time>2012-03-25T15:14:33Z</time>
      </trkpt>
      <trkpt lat="45.73685" lon="4.29313">
        <ele>367</ele>
        <time>2012-03-25T15:14:40Z</time>
      </trkpt>
      <trkpt lat="45.73675" lon="4.29348">
        <ele>368</ele>
        <time>2012-03-25T15:15:00Z</time>
      </trkpt>
      <trkpt lat="45.73664" lon="4.29384">
        <ele>368</ele>
        <time>2012-03-25T15:15:19Z</time>
      </trkpt>
      <trkpt lat="45.73661" lon="4.29401">
        <ele>368</ele>
        <time>2012-03-25T15:15:28Z</time>
      </trkpt>
      <trkpt lat="45.73669" lon="4.29442">
        <ele>368</ele>
        <time>2012-03-25T15:15:46Z</time>
      </trkpt>
      <trkpt lat="45.73677" lon="4.29483">
        <ele>370</ele>
        <time>2012-03-25T15:16:05Z</time>
      </trkpt>
      <trkpt lat="45.73675" lon="4.29496">
        <ele>369</ele>
        <time>2012-03-25T15:16:14Z</time>
      </trkpt>
      <trkpt lat="45.73663" lon="4.2954">
        <ele>369</ele>
        <time>2012-03-25T15:16:31Z</time>
      </trkpt>
      <trkpt lat="45.73657" lon="4.29575">
        <ele>370</ele>
        <time>2012-03-25T15:16:49Z</time>
      </trkpt>
      <trkpt lat="45.73646" lon="4.29609">
        <ele>369</ele>
        <time>2012-03-25T15:17:07Z</time>
      </trkpt>
      <trkpt lat="45.73641" lon="4.29643">
        <ele>369</ele>
        <time>2012-03-25T15:17:21Z</time>
      </trkpt>
      <trkpt lat="45.7364" lon="4.29649">
        <ele>369</ele>
        <time>2012-03-25T15:17:24Z</time>
      </trkpt>
      <trkpt lat="45.73629" lon="4.29686">
        <ele>368</ele>
        <time>2012-03-25T15:17:43Z</time>
      </trkpt>
      <trkpt lat="45.73621" lon="4.29709">
        <ele>368</ele>
        <time>2012-03-25T15:17:54Z</time>
      </trkpt>
      <trkpt lat="45.736" lon="4.29742">
        <ele>372</ele>
        <time>2012-03-25T15:18:03Z</time>
      </trkpt>
      <trkpt lat="45.73578" lon="4.29799">
        <ele>370</ele>
        <time>2012-03-25T15:18:12Z</time>
      </trkpt>
      <trkpt lat="45.73575" lon="4.29854">
        <ele>371</ele>
        <time>2012-03-25T15:18:18Z</time>
      </trkpt>
      <trkpt lat="45.73574" lon="4.29862">
        <ele>371</ele>
        <time>2012-03-25T15:18:19Z</time>
      </trkpt>
      <trkpt lat="45.73573" lon="4.2987">
        <ele>372</ele>
        <time>2012-03-25T15:18:20Z</time>
      </trkpt>
      <trkpt lat="45.73568" lon="4.29893">
        <ele>373</ele>
        <time>2012-03-25T15:18:23Z</time>
      </trkpt>
      <trkpt lat="45.7356" lon="4.29934">
        <ele>376</ele>
        <time>2012-03-25T15:18:28Z</time>
      </trkpt>
      <trkpt lat="45.73557" lon="4.29943">
        <ele>376</ele>
        <time>2012-03-25T15:18:29Z</time>
      </trkpt>
      <trkpt lat="45.73553" lon="4.29952">
        <ele>376</ele>
        <time>2012-03-25T15:18:30Z</time>
      </trkpt>
      <trkpt lat="45.73547" lon="4.2997">
        <ele>377</ele>
        <time>2012-03-25T15:18:32Z</time>
      </trkpt>
      <trkpt lat="45.73543" lon="4.29978">
        <ele>377</ele>
        <time>2012-03-25T15:18:33Z</time>
      </trkpt>
      <trkpt lat="45.73541" lon="4.29985">
        <ele>377</ele>
        <time>2012-03-25T15:18:34Z</time>
      </trkpt>
      <trkpt lat="45.73538" lon="4.29991">
        <ele>377</ele>
        <time>2012-03-25T15:18:35Z</time>
      </trkpt>
      <trkpt lat="45.73535" lon="4.29998">
        <ele>378</ele>
        <time>2012-03-25T15:18:36Z</time>
      </trkpt>
      <trkpt lat="45.73533" lon="4.30005">
        <ele>377</ele>
        <time>2012-03-25T15:18:37Z</time>
      </trkpt>
      <trkpt lat="45.73531" lon="4.30012">
        <ele>378</ele>
        <time>2012-03-25T15:18:38Z</time>
      </trkpt>
      <trkpt lat="45.7353" lon="4.30019">
        <ele>378</ele>
        <time>2012-03-25T15:18:39Z</time>
      </trkpt>
      <trkpt lat="45.73528" lon="4.30026">
        <ele>377</ele>
        <time>2012-03-25T15:18:40Z</time>
      </trkpt>
      <trkpt lat="45.73526" lon="4.30032">
        <ele>378</ele>
        <time>2012-03-25T15:18:41Z</time>
      </trkpt>
      <trkpt lat="45.73523" lon="4.30039">
        <ele>377</ele>
        <time>2012-03-25T15:18:42Z</time>
      </trkpt>
      <trkpt lat="45.73522" lon="4.30045">
        <ele>378</ele>
        <time>2012-03-25T15:18:43Z</time>
      </trkpt>
      <trkpt lat="45.73519" lon="4.30053">
        <ele>377</ele>
        <time>2012-03-25T15:18:44Z</time>
      </trkpt>
      <trkpt lat="45.73518" lon="4.30058">
        <ele>377</ele>
        <time>2012-03-25T15:18:45Z</time>
      </trkpt>
      <trkpt lat="45.73517" lon="4.30063">
        <ele>376</ele>
        <time>2012-03-25T15:18:46Z</time>
      </trkpt>
      <trkpt lat="45.73515" lon="4.30068">
        <ele>376</ele>
        <time>2012-03-25T15:18:47Z</time>
      </trkpt>
      <trkpt lat="45.73514" lon="4.30071">
        <ele>376</ele>
        <time>2012-03-25T15:18:48Z</time>
      </trkpt>
      <trkpt lat="45.73499" lon="4.30112">
        <ele>377</ele>
        <time>2012-03-25T15:19:00Z</time>
      </trkpt>
      <trkpt lat="45.73498" lon="4.30115">
        <ele>376</ele>
        <time>2012-03-25T15:19:01Z</time>
      </trkpt>
      <trkpt lat="45.73498" lon="4.30117">
        <ele>377</ele>
        <time>2012-03-25T15:19:02Z</time>
      </trkpt>
      <trkpt lat="45.73499" lon="4.3012">
        <ele>377</ele>
        <time>2012-03-25T15:19:03Z</time>
      </trkpt>
      <trkpt lat="45.73499" lon="4.30122">
        <ele>376</ele>
        <time>2012-03-25T15:19:04Z</time>
      </trkpt>
      <trkpt lat="45.73499" lon="4.30125">
        <ele>377</ele>
        <time>2012-03-25T15:19:05Z</time>
      </trkpt>
      <trkpt lat="45.73501" lon="4.3016">
        <ele>376</ele>
        <time>2012-03-25T15:19:18Z</time>
      </trkpt>
      <trkpt lat="45.73491" lon="4.30195">
        <ele>379</ele>
        <time>2012-03-25T15:19:34Z</time>
      </trkpt>
      <trkpt lat="45.73484" lon="4.30215">
        <ele>380</ele>
        <time>2012-03-25T15:19:39Z</time>
      </trkpt>
      <trkpt lat="45.73473" lon="4.3025">
        <ele>382</ele>
        <time>2012-03-25T15:19:57Z</time>
      </trkpt>
      <trkpt lat="45.7347" lon="4.30265">
        <ele>382</ele>
        <time>2012-03-25T15:20:11Z</time>
      </trkpt>
      <trkpt lat="45.73472" lon="4.30268">
        <ele>382</ele>
        <time>2012-03-25T15:20:12Z</time>
      </trkpt>
      <trkpt lat="45.73474" lon="4.30271">
        <ele>383</ele>
        <time>2012-03-25T15:20:13Z</time>
      </trkpt>
      <trkpt lat="45.7348" lon="4.30274">
        <ele>383</ele>
        <time>2012-03-25T15:20:17Z</time>
      </trkpt>
      <trkpt lat="45.73504" lon="4.30276">
        <ele>386</ele>
        <time>2012-03-25T15:20:30Z</time>
      </trkpt>
      <trkpt lat="45.73529" lon="4.30289">
        <ele>389</ele>
        <time>2012-03-25T15:20:46Z</time>
      </trkpt>
      <trkpt lat="45.73549" lon="4.30308">
        <ele>392</ele>
        <time>2012-03-25T15:21:02Z</time>
      </trkpt>
      <trkpt lat="45.73572" lon="4.30318">
        <ele>395</ele>
        <time>2012-03-25T15:21:16Z</time>
      </trkpt>
      <trkpt lat="45.73575" lon="4.30318">
        <ele>395</ele>
        <time>2012-03-25T15:21:18Z</time>
      </trkpt>
      <trkpt lat="45.73576" lon="4.30318">
        <ele>395</ele>
        <time>2012-03-25T15:21:19Z</time>
      </trkpt>
      <trkpt lat="45.73578" lon="4.30317">
        <ele>395</ele>
        <time>2012-03-25T15:21:20Z</time>
      </trkpt>
      <trkpt lat="45.73594" lon="4.30324">
        <ele>398</ele>
        <time>2012-03-25T15:21:31Z</time>
      </trkpt>
      <trkpt lat="45.73596" lon="4.30325">
        <ele>399</ele>
        <time>2012-03-25T15:21:33Z</time>
      </trkpt>
      <trkpt lat="45.7362" lon="4.30334">
        <ele>401</ele>
        <time>2012-03-25T15:21:48Z</time>
      </trkpt>
      <trkpt lat="45.73644" lon="4.30341">
        <ele>404</ele>
        <time>2012-03-25T15:22:06Z</time>
      </trkpt>
      <trkpt lat="45.73666" lon="4.30353">
        <ele>407</ele>
        <time>2012-03-25T15:22:23Z</time>
      </trkpt>
      <trkpt lat="45.7368" lon="4.30378">
        <ele>410</ele>
        <time>2012-03-25T15:22:36Z</time>
      </trkpt>
      <trkpt lat="45.73682" lon="4.30387">
        <ele>412</ele>
        <time>2012-03-25T15:22:40Z</time>
      </trkpt>
      <trkpt lat="45.73685" lon="4.30398">
        <ele>412</ele>
        <time>2012-03-25T15:22:44Z</time>
      </trkpt>
      <trkpt lat="45.73693" lon="4.30417">
        <ele>412</ele>
        <time>2012-03-25T15:22:57Z</time>
      </trkpt>
      <trkpt lat="45.73699" lon="4.30448">
        <ele>412</ele>
        <time>2012-03-25T15:23:12Z</time>
      </trkpt>
      <trkpt lat="45.73705" lon="4.30482">
        <ele>412</ele>
        <time>2012-03-25T15:23:25Z</time>
      </trkpt>
      <trkpt lat="45.73709" lon="4.30491">
        <ele>411</ele>
        <time>2012-03-25T15:23:30Z</time>
      </trkpt>
      <trkpt lat="45.73717" lon="4.30501">
        <ele>412</ele>
        <time>2012-03-25T15:23:37Z</time>
      </trkpt>
      <trkpt lat="45.73728" lon="4.30531">
        <ele>412</ele>
        <time>2012-03-25T15:23:52Z</time>
      </trkpt>
      <trkpt lat="45.73735" lon="4.30562">
        <ele>412</ele>
        <time>2012-03-25T15:24:05Z</time>
      </trkpt>
      <trkpt lat="45.73761" lon="4.30582">
        <ele>412</ele>
        <time>2012-03-25T15:24:22Z</time>
      </trkpt>
      <trkpt lat="45.73784" lon="4.30611">
        <ele>412</ele>
        <time>2012-03-25T15:24:40Z</time>
      </trkpt>
      <trkpt lat="45.73794" lon="4.30626">
        <ele>413</ele>
        <time>2012-03-25T15:24:51Z</time>
      </trkpt>
      <trkpt lat="45.73801" lon="4.30663">
        <ele>412</ele>
        <time>2012-03-25T15:25:07Z</time>
      </trkpt>
      <trkpt lat="45.73784" lon="4.3071">
        <ele>412</ele>
        <time>2012-03-25T15:25:27Z</time>
      </trkpt>
      <trkpt lat="45.73776" lon="4.30753">
        <ele>411</ele>
        <time>2012-03-25T15:25:46Z</time>
      </trkpt>
      <trkpt lat="45.73773" lon="4.3077">
        <ele>412</ele>
        <time>2012-03-25T15:25:59Z</time>
      </trkpt>
      <trkpt lat="45.73764" lon="4.30802">
        <ele>411</ele>
        <time>2012-03-25T15:26:16Z</time>
      </trkpt>
      <trkpt lat="45.73763" lon="4.30803">
        <ele>412</ele>
        <time>2012-03-25T15:26:17Z</time>
      </trkpt>
      <trkpt lat="45.73741" lon="4.30832">
        <ele>412</ele>
        <time>2012-03-25T15:26:37Z</time>
      </trkpt>
      <trkpt lat="45.73726" lon="4.3086">
        <ele>412</ele>
        <time>2012-03-25T15:26:53Z</time>
      </trkpt>
      <trkpt lat="45.73717" lon="4.30879">
        <ele>412</ele>
        <time>2012-03-25T15:27:03Z</time>
      </trkpt>
      <trkpt lat="45.7371" lon="4.30888">
        <ele>411</ele>
        <time>2012-03-25T15:27:08Z</time>
      </trkpt>
      <trkpt lat="45.73705" lon="4.309">
        <ele>411</ele>
        <time>2012-03-25T15:27:13Z</time>
      </trkpt>
      <trkpt lat="45.73698" lon="4.30933">
        <ele>411</ele>
        <time>2012-03-25T15:27:30Z</time>
      </trkpt>
      <trkpt lat="45.73699" lon="4.30959">
        <ele>411</ele>
        <time>2012-03-25T15:27:46Z</time>
      </trkpt>
      <trkpt lat="45.73681" lon="4.30972">
        <ele>411</ele>
        <time>2012-03-25T15:28:01Z</time>
      </trkpt>
      <trkpt lat="45.73658" lon="4.30994">
        <ele>411</ele>
        <time>2012-03-25T15:28:19Z</time>
      </trkpt>
      <trkpt lat="45.73643" lon="4.3102">
        <ele>411</ele>
        <time>2012-03-25T15:28:34Z</time>
      </trkpt>
      <trkpt lat="45.73634" lon="4.31051">
        <ele>411</ele>
        <time>2012-03-25T15:28:54Z</time>
      </trkpt>
      <trkpt lat="45.73614" lon="4.31087">
        <ele>411</ele>
        <time>2012-03-25T15:29:12Z</time>
      </trkpt>
      <trkpt lat="45.73599" lon="4.31113">
        <ele>411</ele>
        <time>2012-03-25T15:29:26Z</time>
      </trkpt>
      <trkpt lat="45.73589" lon="4.31143">
        <ele>411</ele>
        <time>2012-03-25T15:29:42Z</time>
      </trkpt>
      <trkpt lat="45.73579" lon="4.31163">
        <ele>412</ele>
        <time>2012-03-25T15:29:58Z</time>
      </trkpt>
      <trkpt lat="45.73559" lon="4.31201">
        <ele>411</ele>
        <time>2012-03-25T15:30:16Z</time>
      </trkpt>
      <trkpt lat="45.73546" lon="4.31229">
        <ele>413</ele>
        <time>2012-03-25T15:30:29Z</time>
      </trkpt>
      <trkpt lat="45.73542" lon="4.31256">
        <ele>414</ele>
        <time>2012-03-25T15:30:36Z</time>
      </trkpt>
      <trkpt lat="45.73542" lon="4.31277">
        <ele>415</ele>
        <time>2012-03-25T15:30:43Z</time>
      </trkpt>
      <trkpt lat="45.73533" lon="4.31321">
        <ele>419</ele>
        <time>2012-03-25T15:30:53Z</time>
      </trkpt>
      <trkpt lat="45.73527" lon="4.31342">
        <ele>421</ele>
        <time>2012-03-25T15:30:57Z</time>
      </trkpt>
      <trkpt lat="45.73519" lon="4.31364">
        <ele>425</ele>
        <time>2012-03-25T15:31:01Z</time>
      </trkpt>
      <trkpt lat="45.73516" lon="4.31371">
        <ele>425</ele>
        <time>2012-03-25T15:31:03Z</time>
      </trkpt>
      <trkpt lat="45.73508" lon="4.31395">
        <ele>428</ele>
        <time>2012-03-25T15:31:08Z</time>
      </trkpt>
      <trkpt lat="45.73506" lon="4.31404">
        <ele>429</ele>
        <time>2012-03-25T15:31:10Z</time>
      </trkpt>
      <trkpt lat="45.73493" lon="4.31428">
        <ele>433</ele>
        <time>2012-03-25T15:31:24Z</time>
      </trkpt>
      <trkpt lat="45.73485" lon="4.31443">
        <ele>433</ele>
        <time>2012-03-25T15:31:37Z</time>
      </trkpt>
      <trkpt lat="45.73487" lon="4.31447">
        <ele>431</ele>
        <time>2012-03-25T15:31:40Z</time>
      </trkpt>
      <trkpt lat="45.73486" lon="4.31469">
        <ele>428</ele>
        <time>2012-03-25T15:31:53Z</time>
      </trkpt>
      <trkpt lat="45.73478" lon="4.31499">
        <ele>426</ele>
        <time>2012-03-25T15:32:10Z</time>
      </trkpt>
      <trkpt lat="45.73474" lon="4.31537">
        <ele>424</ele>
        <time>2012-03-25T15:32:27Z</time>
      </trkpt>
      <trkpt lat="45.73464" lon="4.31566">
        <ele>423</ele>
        <time>2012-03-25T15:32:45Z</time>
      </trkpt>
      <trkpt lat="45.73432" lon="4.31576">
        <ele>424</ele>
        <time>2012-03-25T15:33:06Z</time>
      </trkpt>
      <trkpt lat="45.73428" lon="4.31578">
        <ele>424</ele>
        <time>2012-03-25T15:33:15Z</time>
      </trkpt>
      <trkpt lat="45.73421" lon="4.31608">
        <ele>427</ele>
        <time>2012-03-25T15:33:29Z</time>
      </trkpt>
      <trkpt lat="45.73413" lon="4.31636">
        <ele>427</ele>
        <time>2012-03-25T15:33:47Z</time>
      </trkpt>
      <trkpt lat="45.73412" lon="4.31637">
        <ele>427</ele>
        <time>2012-03-25T15:33:48Z</time>
      </trkpt>
      <trkpt lat="45.73394" lon="4.31686">
        <ele>428</ele>
        <time>2012-03-25T15:34:06Z</time>
      </trkpt>
      <trkpt lat="45.73378" lon="4.31715">
        <ele>429</ele>
        <time>2012-03-25T15:34:24Z</time>
      </trkpt>
      <trkpt lat="45.73374" lon="4.31721">
        <ele>429</ele>
        <time>2012-03-25T15:34:28Z</time>
      </trkpt>
      <trkpt lat="45.73348" lon="4.31761">
        <ele>431</ele>
        <time>2012-03-25T15:34:44Z</time>
      </trkpt>
      <trkpt lat="45.73342" lon="4.31795">
        <ele>431</ele>
        <time>2012-03-25T15:34:58Z</time>
      </trkpt>
      <trkpt lat="45.73337" lon="4.31833">
        <ele>434</ele>
        <time>2012-03-25T15:35:14Z</time>
      </trkpt>
      <trkpt lat="45.73346" lon="4.31855">
        <ele>437</ele>
        <time>2012-03-25T15:35:23Z</time>
      </trkpt>
      <trkpt lat="45.73332" lon="4.31874">
        <ele>438</ele>
        <time>2012-03-25T15:35:41Z</time>
      </trkpt>
      <trkpt lat="45.73331" lon="4.31875">
        <ele>438</ele>
        <time>2012-03-25T15:35:42Z</time>
      </trkpt>
      <trkpt lat="45.73321" lon="4.31911">
        <ele>441</ele>
        <time>2012-03-25T15:35:57Z</time>
      </trkpt>
      <trkpt lat="45.73322" lon="4.31922">
        <ele>443</ele>
        <time>2012-03-25T15:36:02Z</time>
      </trkpt>
      <trkpt lat="45.73325" lon="4.31929">
        <ele>444</ele>
        <time>2012-03-25T15:36:05Z</time>
      </trkpt>
      <trkpt lat="45.73325" lon="4.31948">
        <ele>448</ele>
        <time>2012-03-25T15:36:13Z</time>
      </trkpt>
      <trkpt lat="45.73328" lon="4.31956">
        <ele>447</ele>
        <time>2012-03-25T15:36:29Z</time>
      </trkpt>
      <trkpt lat="45.73342" lon="4.31954">
        <ele>446</ele>
        <time>2012-03-25T15:36:38Z</time>
      </trkpt>
      <trkpt lat="45.7337" lon="4.31965">
        <ele>443</ele>
        <time>2012-03-25T15:36:53Z</time>
      </trkpt>
      <trkpt lat="45.73374" lon="4.3199">
        <ele>440</ele>
        <time>2012-03-25T15:37:06Z</time>
      </trkpt>
      <trkpt lat="45.73355" lon="4.32011">
        <ele>437</ele>
        <time>2012-03-25T15:37:21Z</time>
      </trkpt>
      <trkpt lat="45.73341" lon="4.32016">
        <ele>436</ele>
        <time>2012-03-25T15:37:30Z</time>
      </trkpt>
      <trkpt lat="45.73309" lon="4.32036">
        <ele>432</ele>
        <time>2012-03-25T15:37:47Z</time>
      </trkpt>
      <trkpt lat="45.73299" lon="4.32061">
        <ele>431</ele>
        <time>2012-03-25T15:38:04Z</time>
      </trkpt>
      <trkpt lat="45.73314" lon="4.32085">
        <ele>431</ele>
        <time>2012-03-25T15:38:20Z</time>
      </trkpt>
      <trkpt lat="45.73328" lon="4.32104">
        <ele>429</ele>
        <time>2012-03-25T15:38:35Z</time>
      </trkpt>
      <trkpt lat="45.73356" lon="4.32129">
        <ele>428</ele>
        <time>2012-03-25T15:38:51Z</time>
      </trkpt>
      <trkpt lat="45.73368" lon="4.32159">
        <ele>427</ele>
        <time>2012-03-25T15:39:04Z</time>
      </trkpt>
      <trkpt lat="45.7338" lon="4.32173">
        <ele>426</ele>
        <time>2012-03-25T15:39:08Z</time>
      </trkpt>
      <trkpt lat="45.73371" lon="4.32215">
        <ele>427</ele>
        <time>2012-03-25T15:39:24Z</time>
      </trkpt>
      <trkpt lat="45.73374" lon="4.32238">
        <ele>429</ele>
        <time>2012-03-25T15:39:36Z</time>
      </trkpt>
      <trkpt lat="45.73386" lon="4.32274">
        <ele>430</ele>
        <time>2012-03-25T15:39:53Z</time>
      </trkpt>
      <trkpt lat="45.73393" lon="4.32301">
        <ele>430</ele>
        <time>2012-03-25T15:40:10Z</time>
      </trkpt>
      <trkpt lat="45.73396" lon="4.32307">
        <ele>430</ele>
        <time>2012-03-25T15:40:20Z</time>
      </trkpt>
      <trkpt lat="45.73396" lon="4.32309">
        <ele>430</ele>
        <time>2012-03-25T15:40:34Z</time>
      </trkpt>
      <trkpt lat="45.73397" lon="4.32309">
        <ele>430</ele>
        <time>2012-03-25T15:40:47Z</time>
      </trkpt>
      <trkpt lat="45.734" lon="4.32307">
        <ele>430</ele>
        <time>2012-03-25T15:41:02Z</time>
      </trkpt>
      <trkpt lat="45.734" lon="4.32308">
        <ele>430</ele>
        <time>2012-03-25T15:41:13Z</time>
      </trkpt>
      <trkpt lat="45.73403" lon="4.32317">
        <ele>431</ele>
        <time>2012-03-25T15:41:19Z</time>
      </trkpt>
      <trkpt lat="45.73404" lon="4.3232">
        <ele>430</ele>
        <time>2012-03-25T15:41:33Z</time>
      </trkpt>
      <trkpt lat="45.73405" lon="4.3232">
        <ele>430</ele>
        <time>2012-03-25T15:41:49Z</time>
      </trkpt>
      <trkpt lat="45.73407" lon="4.32327">
        <ele>430</ele>
        <time>2012-03-25T15:42:04Z</time>
      </trkpt>
      <trkpt lat="45.7341" lon="4.3233">
        <ele>430</ele>
        <time>2012-03-25T15:42:21Z</time>
      </trkpt>
      <trkpt lat="45.73419" lon="4.32329">
        <ele>429</ele>
        <time>2012-03-25T15:42:34Z</time>
      </trkpt>
      <trkpt lat="45.73424" lon="4.3233">
        <ele>429</ele>
        <time>2012-03-25T15:42:39Z</time>
      </trkpt>
      <trkpt lat="45.73426" lon="4.32331">
        <ele>428</ele>
        <time>2012-03-25T15:42:41Z</time>
      </trkpt>
      <trkpt lat="45.73439" lon="4.3235">
        <ele>428</ele>
        <time>2012-03-25T15:42:54Z</time>
      </trkpt>
      <trkpt lat="45.73441" lon="4.32357">
        <ele>428</ele>
        <time>2012-03-25T15:43:12Z</time>
      </trkpt>
      <trkpt lat="45.73441" lon="4.32362">
        <ele>428</ele>
        <time>2012-03-25T15:43:27Z</time>
      </trkpt>
      <trkpt lat="45.7345" lon="4.32368">
        <ele>427</ele>
        <time>2012-03-25T15:43:40Z</time>
      </trkpt>
      <trkpt lat="45.73454" lon="4.3237">
        <ele>427</ele>
        <time>2012-03-25T15:43:43Z</time>
      </trkpt>
      <trkpt lat="45.73469" lon="4.32375">
        <ele>426</ele>
        <time>2012-03-25T15:43:49Z</time>
      </trkpt>
      <trkpt lat="45.73481" lon="4.32382">
        <ele>425</ele>
        <time>2012-03-25T15:43:56Z</time>
      </trkpt>
      <trkpt lat="45.73498" lon="4.32391">
        <ele>423</ele>
        <time>2012-03-25T15:44:12Z</time>
      </trkpt>
      <trkpt lat="45.73501" lon="4.32393">
        <ele>421</ele>
        <time>2012-03-25T15:44:14Z</time>
      </trkpt>
      <trkpt lat="45.73504" lon="4.32402">
        <ele>420</ele>
        <time>2012-03-25T15:44:19Z</time>
      </trkpt>
      <trkpt lat="45.73506" lon="4.32405">
        <ele>420</ele>
        <time>2012-03-25T15:44:33Z</time>
      </trkpt>
      <trkpt lat="45.73506" lon="4.32403">
        <ele>420</ele>
        <time>2012-03-25T15:44:43Z</time>
      </trkpt>
      <trkpt lat="45.73513" lon="4.32401">
        <ele>419</ele>
        <time>2012-03-25T15:44:54Z</time>
      </trkpt>
      <trkpt lat="45.73514" lon="4.32405">
        <ele>419</ele>
        <time>2012-03-25T15:45:10Z</time>
      </trkpt>
      <trkpt lat="45.73515" lon="4.32402">
        <ele>420</ele>
        <time>2012-03-25T15:45:23Z</time>
      </trkpt>
      <trkpt lat="45.73518" lon="4.32412">
        <ele>420</ele>
        <time>2012-03-25T15:45:38Z</time>
      </trkpt>
      <trkpt lat="45.73518" lon="4.32428">
        <ele>421</ele>
        <time>2012-03-25T15:45:46Z</time>
      </trkpt>
      <trkpt lat="45.73524" lon="4.32471">
        <ele>424</ele>
        <time>2012-03-25T15:46:02Z</time>
      </trkpt>
      <trkpt lat="45.73524" lon="4.32483">
        <ele>425</ele>
        <time>2012-03-25T15:46:20Z</time>
      </trkpt>
      <trkpt lat="45.73524" lon="4.32483">
        <ele>426</ele>
        <time>2012-03-25T15:46:46Z</time>
      </trkpt>
      <trkpt lat="45.73524" lon="4.32483">
        <ele>426</ele>
        <time>2012-03-25T15:47:06Z</time>
      </trkpt>
      <trkpt lat="45.73527" lon="4.32477">
        <ele>425</ele>
        <time>2012-03-25T15:47:20Z</time>
      </trkpt>
      <trkpt lat="45.73527" lon="4.32472">
        <ele>424</ele>
        <time>2012-03-25T15:47:23Z</time>
      </trkpt>
      <trkpt lat="45.73522" lon="4.32445">
        <ele>421</ele>
        <time>2012-03-25T15:47:38Z</time>
      </trkpt>
      <trkpt lat="45.73517" lon="4.32417">
        <ele>421</ele>
        <time>2012-03-25T15:47:55Z</time>
      </trkpt>
      <trkpt lat="45.73517" lon="4.32404">
        <ele>421</ele>
        <time>2012-03-25T15:48:05Z</time>
      </trkpt>
      <trkpt lat="45.73517" lon="4.32401">
        <ele>420</ele>
        <time>2012-03-25T15:48:07Z</time>
      </trkpt>
      <trkpt lat="45.73511" lon="4.32396">
        <ele>420</ele>
        <time>2012-03-25T15:48:19Z</time>
      </trkpt>
      <trkpt lat="45.73508" lon="4.32398">
        <ele>420</ele>
        <time>2012-03-25T15:48:31Z</time>
      </trkpt>
      <trkpt lat="45.73507" lon="4.32399">
        <ele>421</ele>
        <time>2012-03-25T15:48:46Z</time>
      </trkpt>
      <trkpt lat="45.73506" lon="4.3239">
        <ele>421</ele>
        <time>2012-03-25T15:48:54Z</time>
      </trkpt>
      <trkpt lat="45.73505" lon="4.32386">
        <ele>422</ele>
        <time>2012-03-25T15:48:56Z</time>
      </trkpt>
      <trkpt lat="45.73492" lon="4.32375">
        <ele>425</ele>
        <time>2012-03-25T15:49:06Z</time>
      </trkpt>
      <trkpt lat="45.73479" lon="4.3237">
        <ele>427</ele>
        <time>2012-03-25T15:49:14Z</time>
      </trkpt>
      <trkpt lat="45.73464" lon="4.32358">
        <ele>428</ele>
        <time>2012-03-25T15:49:27Z</time>
      </trkpt>
      <trkpt lat="45.73449" lon="4.32353">
        <ele>430</ele>
        <time>2012-03-25T15:49:45Z</time>
      </trkpt>
      <trkpt lat="45.73447" lon="4.32354">
        <ele>429</ele>
        <time>2012-03-25T15:49:48Z</time>
      </trkpt>
      <trkpt lat="45.73436" lon="4.32343">
        <ele>431</ele>
        <time>2012-03-25T15:50:05Z</time>
      </trkpt>
      <trkpt lat="45.73426" lon="4.3233">
        <ele>431</ele>
        <time>2012-03-25T15:50:18Z</time>
      </trkpt>
      <trkpt lat="45.73413" lon="4.32327">
        <ele>433</ele>
        <time>2012-03-25T15:50:35Z</time>
      </trkpt>
      <trkpt lat="45.73408" lon="4.32327">
        <ele>433</ele>
        <time>2012-03-25T15:50:39Z</time>
      </trkpt>
      <trkpt lat="45.73386" lon="4.32341">
        <ele>435</ele>
        <time>2012-03-25T15:50:56Z</time>
      </trkpt>
      <trkpt lat="45.73376" lon="4.3235">
        <ele>437</ele>
        <time>2012-03-25T15:51:12Z</time>
      </trkpt>
      <trkpt lat="45.73374" lon="4.3235">
        <ele>437</ele>
        <time>2012-03-25T15:51:16Z</time>
      </trkpt>
      <trkpt lat="45.73361" lon="4.32351">
        <ele>439</ele>
        <time>2012-03-25T15:51:32Z</time>
      </trkpt>
      <trkpt lat="45.73347" lon="4.32356">
        <ele>442</ele>
        <time>2012-03-25T15:51:48Z</time>
      </trkpt>
      <trkpt lat="45.73331" lon="4.32364">
        <ele>445</ele>
        <time>2012-03-25T15:52:00Z</time>
      </trkpt>
      <trkpt lat="45.73319" lon="4.32372">
        <ele>449</ele>
        <time>2012-03-25T15:52:12Z</time>
      </trkpt>
      <trkpt lat="45.73317" lon="4.32391">
        <ele>451</ele>
        <time>2012-03-25T15:52:22Z</time>
      </trkpt>
      <trkpt lat="45.7332" lon="4.32416">
        <ele>454</ele>
        <time>2012-03-25T15:52:36Z</time>
      </trkpt>
      <trkpt lat="45.73319" lon="4.3244">
        <ele>457</ele>
        <time>2012-03-25T15:52:51Z</time>
      </trkpt>
      <trkpt lat="45.73312" lon="4.32447">
        <ele>459</ele>
        <time>2012-03-25T15:52:59Z</time>
      </trkpt>
      <trkpt lat="45.73291" lon="4.32435">
        <ele>463</ele>
        <time>2012-03-25T15:53:16Z</time>
      </trkpt>
      <trkpt lat="45.73268" lon="4.32446">
        <ele>466</ele>
        <time>2012-03-25T15:53:33Z</time>
      </trkpt>
      <trkpt lat="45.73262" lon="4.3245">
        <ele>467</ele>
        <time>2012-03-25T15:53:38Z</time>
      </trkpt>
      <trkpt lat="45.73244" lon="4.32462">
        <ele>470</ele>
        <time>2012-03-25T15:53:51Z</time>
      </trkpt>
      <trkpt lat="45.73233" lon="4.32475">
        <ele>473</ele>
        <time>2012-03-25T15:54:01Z</time>
      </trkpt>
      <trkpt lat="45.73229" lon="4.32482">
        <ele>475</ele>
        <time>2012-03-25T15:54:06Z</time>
      </trkpt>
      <trkpt lat="45.73223" lon="4.32508">
        <ele>478</ele>
        <time>2012-03-25T15:54:18Z</time>
      </trkpt>
      <trkpt lat="45.73217" lon="4.32529">
        <ele>482</ele>
        <time>2012-03-25T15:54:28Z</time>
      </trkpt>
      <trkpt lat="45.73214" lon="4.32537">
        <ele>483</ele>
        <time>2012-03-25T15:54:32Z</time>
      </trkpt>
      <trkpt lat="45.73212" lon="4.32542">
        <ele>484</ele>
        <time>2012-03-25T15:54:36Z</time>
      </trkpt>
      <trkpt lat="45.7321" lon="4.32544">
        <ele>485</ele>
        <time>2012-03-25T15:54:38Z</time>
      </trkpt>
      <trkpt lat="45.73204" lon="4.32551">
        <ele>486</ele>
        <time>2012-03-25T15:54:43Z</time>
      </trkpt>
      <trkpt lat="45.73179" lon="4.32549">
        <ele>489</ele>
        <time>2012-03-25T15:55:02Z</time>
      </trkpt>
      <trkpt lat="45.73151" lon="4.32552">
        <ele>492</ele>
        <time>2012-03-25T15:55:23Z</time>
      </trkpt>
      <trkpt lat="45.73127" lon="4.32554">
        <ele>494</ele>
        <time>2012-03-25T15:55:40Z</time>
      </trkpt>
      <trkpt lat="45.73102" lon="4.32555">
        <ele>497</ele>
        <time>2012-03-25T15:55:58Z</time>
      </trkpt>
      <trkpt lat="45.73073" lon="4.32564">
        <ele>499</ele>
        <time>2012-03-25T15:56:18Z</time>
      </trkpt>
      <trkpt lat="45.73048" lon="4.32578">
        <ele>500</ele>
        <time>2012-03-25T15:56:37Z</time>
      </trkpt>
      <trkpt lat="45.73022" lon="4.32595">
        <ele>500</ele>
        <time>2012-03-25T15:56:54Z</time>
      </trkpt>
      <trkpt lat="45.72993" lon="4.32617">
        <ele>500</ele>
        <time>2012-03-25T15:57:14Z</time>
      </trkpt>
      <trkpt lat="45.72966" lon="4.32641">
        <ele>501</ele>
        <time>2012-03-25T15:57:34Z</time>
      </trkpt>
      <trkpt lat="45.72941" lon="4.32657">
        <ele>504</ele>
        <time>2012-03-25T15:57:51Z</time>
      </trkpt>
      <trkpt lat="45.7291" lon="4.32671">
        <ele>507</ele>
        <time>2012-03-25T15:58:12Z</time>
      </trkpt>
      <trkpt lat="45.72885" lon="4.32672">
        <ele>508</ele>
        <time>2012-03-25T15:58:29Z</time>
      </trkpt>
      <trkpt lat="45.72849" lon="4.32683">
        <ele>510</ele>
        <time>2012-03-25T15:58:54Z</time>
      </trkpt>
      <trkpt lat="45.72822" lon="4.32699">
        <ele>512</ele>
        <time>2012-03-25T15:59:14Z</time>
      </trkpt>
      <trkpt lat="45.72801" lon="4.32718">
        <ele>513</ele>
        <time>2012-03-25T15:59:30Z</time>
      </trkpt>
      <trkpt lat="45.7278" lon="4.32728">
        <ele>513</ele>
        <time>2012-03-25T15:59:45Z</time>
      </trkpt>
      <trkpt lat="45.72761" lon="4.32737">
        <ele>513</ele>
        <time>2012-03-25T15:59:56Z</time>
      </trkpt>
      <trkpt lat="45.72758" lon="4.32738">
        <ele>515</ele>
        <time>2012-03-25T15:59:58Z</time>
      </trkpt>
      <trkpt lat="45.72733" lon="4.32743">
        <ele>518</ele>
        <time>2012-03-25T16:00:13Z</time>
      </trkpt>
      <trkpt lat="45.72701" lon="4.32752">
        <ele>520</ele>
        <time>2012-03-25T16:00:35Z</time>
      </trkpt>
      <trkpt lat="45.72676" lon="4.32753">
        <ele>521</ele>
        <time>2012-03-25T16:00:51Z</time>
      </trkpt>
      <trkpt lat="45.72662" lon="4.32756">
        <ele>521</ele>
        <time>2012-03-25T16:01:09Z</time>
      </trkpt>
      <trkpt lat="45.72662" lon="4.32756">
        <ele>521</ele>
        <time>2012-03-25T16:01:21Z</time>
      </trkpt>
      <trkpt lat="45.72662" lon="4.32757">
        <ele>521</ele>
        <time>2012-03-25T16:01:36Z</time>
      </trkpt>
      <trkpt lat="45.72662" lon="4.32757">
        <ele>521</ele>
        <time>2012-03-25T16:01:55Z</time>
      </trkpt>
      <trkpt lat="45.72664" lon="4.32755">
        <ele>521</ele>
        <time>2012-03-25T16:02:08Z</time>
      </trkpt>
      <trkpt lat="45.72665" lon="4.32754">
        <ele>521</ele>
        <time>2012-03-25T16:02:23Z</time>
      </trkpt>
      <trkpt lat="45.72668" lon="4.32756">
        <ele>521</ele>
        <time>2012-03-25T16:02:36Z</time>
      </trkpt>
      <trkpt lat="45.72667" lon="4.32756">
        <ele>522</ele>
        <time>2012-03-25T16:02:37Z</time>
      </trkpt>
      <trkpt lat="45.72663" lon="4.32756">
        <ele>521</ele>
        <time>2012-03-25T16:02:40Z</time>
      </trkpt>
      <trkpt lat="45.72655" lon="4.32757">
        <ele>521</ele>
        <time>2012-03-25T16:02:56Z</time>
      </trkpt>
      <trkpt lat="45.72643" lon="4.32756">
        <ele>521</ele>
        <time>2012-03-25T16:03:13Z</time>
      </trkpt>
      <trkpt lat="45.72636" lon="4.32757">
        <ele>522</ele>
        <time>2012-03-25T16:03:20Z</time>
      </trkpt>
      <trkpt lat="45.72629" lon="4.32752">
        <ele>521</ele>
        <time>2012-03-25T16:03:25Z</time>
      </trkpt>
      <trkpt lat="45.72612" lon="4.32749">
        <ele>520</ele>
        <time>2012-03-25T16:03:39Z</time>
      </trkpt>
      <trkpt lat="45.72601" lon="4.32757">
        <ele>520</ele>
        <time>2012-03-25T16:03:49Z</time>
      </trkpt>
      <trkpt lat="45.72583" lon="4.32791">
        <ele>521</ele>
        <time>2012-03-25T16:04:09Z</time>
      </trkpt>
      <trkpt lat="45.7257" lon="4.32816">
        <ele>521</ele>
        <time>2012-03-25T16:04:24Z</time>
      </trkpt>
      <trkpt lat="45.72567" lon="4.32827">
        <ele>522</ele>
        <time>2012-03-25T16:04:36Z</time>
      </trkpt>
      <trkpt lat="45.72569" lon="4.32836">
        <ele>521</ele>
        <time>2012-03-25T16:04:49Z</time>
      </trkpt>
      <trkpt lat="45.72569" lon="4.32836">
        <ele>521</ele>
        <time>2012-03-25T16:04:54Z</time>
      </trkpt>
      <trkpt lat="45.72315" lon="4.32865">
        <ele>523</ele>
        <time>2012-03-25T16:05:08Z</time>
      </trkpt>
      <trkpt lat="45.7199" lon="4.32911">
        <ele>522</ele>
        <time>2012-03-25T16:05:09Z</time>
      </trkpt>
      <trkpt lat="45.71772" lon="4.32993">
        <ele>524</ele>
        <time>2012-03-25T16:05:12Z</time>
      </trkpt>
      <trkpt lat="45.71551" lon="4.33062">
        <ele>526</ele>
        <time>2012-03-25T16:05:21Z</time>
      </trkpt>
      <trkpt lat="45.71442" lon="4.32846">
        <ele>526</ele>
        <time>2012-03-25T16:05:24Z</time>
      </trkpt>
      <trkpt lat="45.71454" lon="4.32699">
        <ele>527</ele>
        <time>2012-03-25T16:05:25Z</time>
      </trkpt>
      <trkpt lat="45.7139" lon="4.32478">
        <ele>529</ele>
        <time>2012-03-25T16:05:31Z</time>
      </trkpt>
      <trkpt lat="45.71392" lon="4.32343">
        <ele>530</ele>
        <time>2012-03-25T16:05:42Z</time>
      </trkpt>
      <trkpt lat="45.71459" lon="4.32378">
        <ele>532</ele>
        <time>2012-03-25T16:05:47Z</time>
      </trkpt>
      <trkpt lat="45.71515" lon="4.32508">
        <ele>534</ele>
        <time>2012-03-25T16:05:50Z</time>
      </trkpt>
      <trkpt lat="45.71651" lon="4.32288">
        <ele>534</ele>
        <time>2012-03-25T16:05:57Z</time>
      </trkpt>
      <trkpt lat="45.7164" lon="4.3207">
        <ele>534</ele>
        <time>2012-03-25T16:05:58Z</time>
      </trkpt>
      <trkpt lat="45.71834" lon="4.31788">
        <ele>534</ele>
        <time>2012-03-25T16:05:59Z</time>
      </trkpt>
      <trkpt lat="45.71853" lon="4.31679">
        <ele>535</ele>
        <time>2012-03-25T16:06:12Z</time>
      </trkpt>
      <trkpt lat="45.71813" lon="4.31543">
        <ele>535</ele>
        <time>2012-03-25T16:06:27Z</time>
      </trkpt>
      <trkpt lat="45.71844" lon="4.31473">
        <ele>535</ele>
        <time>2012-03-25T16:06:44Z</time>
      </trkpt>
      <trkpt lat="45.71849" lon="4.31261">
        <ele>536</ele>
        <time>2012-03-25T16:07:06Z</time>
      </trkpt>
      <trkpt lat="45.71861" lon="4.31088">
        <ele>537</ele>
        <time>2012-03-25T16:07:27Z</time>
      </trkpt>
      <trkpt lat="45.7188" lon="4.31025">
        <ele>537</ele>
        <time>2012-03-25T16:07:47Z</time>
      </trkpt>
      <trkpt lat="45.71881" lon="4.30986">
        <ele>538</ele>
        <time>2012-03-25T16:08:06Z</time>
      </trkpt>
      <trkpt lat="45.71815" lon="4.30887">
        <ele>539</ele>
        <time>2012-03-25T16:08:24Z</time>
      </trkpt>
      <trkpt lat="45.71864" lon="4.30825">
        <ele>538</ele>
        <time>2012-03-25T16:08:41Z</time>
      </trkpt>
      <trkpt lat="45.71853" lon="4.30677">
        <ele>538</ele>
        <time>2012-03-25T16:09:00Z</time>
      </trkpt>
      <trkpt lat="45.71865" lon="4.30603">
        <ele>538</ele>
        <time>2012-03-25T16:09:21Z</time>
      </trkpt>
      <trkpt lat="45.71898" lon="4.30521">
        <ele>538</ele>
        <time>2012-03-25T16:09:41Z</time>
      </trkpt>
      <trkpt lat="45.7186" lon="4.30523">
        <ele>538</ele>
        <time>2012-03-25T16:09:54Z</time>
      </trkpt>
      <trkpt lat="45.7183" lon="4.30448">
        <ele>538</ele>
        <time>2012-03-25T16:09:56Z</time>
      </trkpt>
      <trkpt lat="45.71798" lon="4.3045">
        <ele>538</ele>
        <time>2012-03-25T16:09:57Z</time>
      </trkpt>
      <trkpt lat="45.71761" lon="4.30365">
        <ele>538</ele>
        <time>2012-03-25T16:09:58Z</time>
      </trkpt>
      <trkpt lat="45.71737" lon="4.30204">
        <ele>540</ele>
        <time>2012-03-25T16:10:15Z</time>
      </trkpt>
      <trkpt lat="45.71609" lon="4.30209">
        <ele>540</ele>
        <time>2012-03-25T16:10:34Z</time>
      </trkpt>
      <trkpt lat="45.71496" lon="4.30118">
        <ele>541</ele>
        <time>2012-03-25T16:10:55Z</time>
      </trkpt>
      <trkpt lat="45.71475" lon="4.30165">
        <ele>542</ele>
        <time>2012-03-25T16:11:09Z</time>
      </trkpt>
      <trkpt lat="45.71491" lon="4.30262">
        <ele>543</ele>
        <time>2012-03-25T16:11:28Z</time>
      </trkpt>
      <trkpt lat="45.71425" lon="4.30305">
        <ele>545</ele>
        <time>2012-03-25T16:11:46Z</time>
      </trkpt>
      <trkpt lat="45.71301" lon="4.30342">
        <ele>547</ele>
        <time>2012-03-25T16:12:05Z</time>
      </trkpt>
      <trkpt lat="45.71124" lon="4.30397">
        <ele>547</ele>
        <time>2012-03-25T16:12:21Z</time>
      </trkpt>
      <trkpt lat="45.71111" lon="4.30483">
        <ele>547</ele>
        <time>2012-03-25T16:12:36Z</time>
      </trkpt>
      <trkpt lat="45.71088" lon="4.30553">
        <ele>546</ele>
        <time>2012-03-25T16:12:51Z</time>
      </trkpt>
      <trkpt lat="45.71006" lon="4.30566">
        <ele>546</ele>
        <time>2012-03-25T16:13:08Z</time>
      </trkpt>
      <trkpt lat="45.70875" lon="4.30642">
        <ele>546</ele>
        <time>2012-03-25T16:13:21Z</time>
      </trkpt>
      <trkpt lat="45.70742" lon="4.30663">
        <ele>546</ele>
        <time>2012-03-25T16:13:39Z</time>
      </trkpt>
      <trkpt lat="45.7071" lon="4.30652">
        <ele>547</ele>
        <time>2012-03-25T16:13:54Z</time>
      </trkpt>
      <trkpt lat="45.70713" lon="4.30614">
        <ele>547</ele>
        <time>2012-03-25T16:14:14Z</time>
      </trkpt>
      <trkpt lat="45.7065" lon="4.30608">
        <ele>547</ele>
        <time>2012-03-25T16:14:31Z</time>
      </trkpt>
      <trkpt lat="45.70618" lon="4.30668">
        <ele>547</ele>
        <time>2012-03-25T16:14:48Z</time>
      </trkpt>
      <trkpt lat="45.70537" lon="4.30633">
        <ele>546</ele>
        <time>2012-03-25T16:15:03Z</time>
      </trkpt>
      <trkpt lat="45.70493" lon="4.30606">
        <ele>546</ele>
        <time>2012-03-25T16:15:04Z</time>
      </trkpt>
      <trkpt lat="45.70439" lon="4.30633">
        <ele>546</ele>
        <time>2012-03-25T16:15:05Z</time>
      </trkpt>
      <trkpt lat="45.70409" lon="4.3058">
        <ele>545</ele>
        <time>2012-03-25T16:15:13Z</time>
      </trkpt>
      <trkpt lat="45.70327" lon="4.30667">
        <ele>544</ele>
        <time>2012-03-25T16:15:15Z</time>
      </trkpt>
      <trkpt lat="45.70069" lon="4.30632">
        <ele>545</ele>
        <time>2012-03-25T16:15:16Z</time>
      </trkpt>
      <trkpt lat="45.7002" lon="4.30708">
        <ele>542</ele>
        <time>2012-03-25T16:15:33Z</time>
      </trkpt>
      <trkpt lat="45.69876" lon="4.30651">
        <ele>540</ele>
        <time>2012-03-25T16:15:49Z</time>
      </trkpt>
      <trkpt lat="45.6975" lon="4.3057">
        <ele>538</ele>
        <time>2012-03-25T16:16:07Z</time>
      </trkpt>
      <trkpt lat="45.6975" lon="4.30489">
        <ele>535</ele>
        <time>2012-03-25T16:16:23Z</time>
      </trkpt>
      <trkpt lat="45.69662" lon="4.30637">
        <ele>532</ele>
        <time>2012-03-25T16:16:39Z</time>
      </trkpt>
      <trkpt lat="45.69573" lon="4.30685">
        <ele>530</ele>
        <time>2012-03-25T16:16:55Z</time>
      </trkpt>
      <trkpt lat="45.69471" lon="4.30865">
        <ele>527</ele>
        <time>2012-03-25T16:17:15Z</time>
      </trkpt>
      <trkpt lat="45.69424" lon="4.31168">
        <ele>525</ele>
        <time>2012-03-25T16:17:30Z</time>
      </trkpt>
      <trkpt lat="45.69375" lon="4.31173">
        <ele>523</ele>
        <time>2012-03-25T16:17:46Z</time>
      </trkpt>
      <trkpt lat="45.6936" lon="4.31005">
        <ele>521</ele>
        <time>2012-03-25T16:18:01Z</time>
      </trkpt>
      <trkpt lat="45.69212" lon="4.30881">
        <ele>519</ele>
        <time>2012-03-25T16:18:17Z</time>
      </trkpt>
      <trkpt lat="45.69188" lon="4.30992">
        <ele>516</ele>
        <time>2012-03-25T16:18:34Z</time>
      </trkpt>
      <trkpt lat="45.69087" lon="4.31252">
        <ele>515</ele>
        <time>2012-03-25T16:18:50Z</time>
      </trkpt>
      <trkpt lat="45.69185" lon="4.31561">
        <ele>513</ele>
        <time>2012-03-25T16:19:07Z</time>
      </trkpt>
      <trkpt lat="45.68957" lon="4.31726">
        <ele>513</ele>
        <time>2012-03-25T16:19:21Z</time>
      </trkpt>
      <trkpt lat="45.68923" lon="4.31715">
        <ele>504.9</ele>
      </trkpt>
      <trkpt lat="45.68763" lon="4.31882">
        <ele>518.3</ele>
      </trkpt>
      <trkpt lat="45.6869" lon="4.31793">
        <ele>514.2</ele>
      </trkpt>
      <trkpt lat="45.68646" lon="4.31753">
        <ele>515.5</ele>
      </trkpt>
      <trkpt lat="45.68593" lon="4.31819">
        <ele>514.3</ele>
      </trkpt>
      <trkpt lat="45.68471" lon="4.31975">
        <ele>505.8</ele>
      </trkpt>
      <trkpt lat="45.68394" lon="4.31994">
        <ele>508</ele>
      </trkpt>
      <trkpt lat="45.68336" lon="4.3196">
        <ele>512.9</ele>
      </trkpt>
      <trkpt lat="45.68295" lon="4.31875">
        <ele>512</ele>
      </trkpt>
      <trkpt lat="45.68266" lon="4.31865">
        <ele>511.2</ele>
      </trkpt>
      <trkpt lat="45.68251" lon="4.31803">
        <ele>504.8</ele>
      </trkpt>
      <trkpt lat="45.68164" lon="4.31399">
        <ele>476.3</ele>
      </trkpt>
      <trkpt lat="45.68013" lon="4.31137">
        <ele>468</ele>
      </trkpt>
    </trkseg>
  </trk>
</gpx>